sensor_id;sensor_type;location;lat;lon;timestamp;P1;durP1;ratioP1;P2;durP2;ratioP2
12884;SDS011;6510;51.362;7.370;2023-02-01T00:02:25;30.30;;;12.20;;
12884;SDS011;6510;51.362;7.370;2023-02-01T00:04:54;25.57;;;12.53;;
12884;SDS011;6510;51.362;7.370;2023-02-01T00:07:20;23.53;;;10.87;;
12884;SDS011;6510;51.362;7.370;2023-02-01T00:09:45;22.77;;;10.37;;
12884;SDS011;6510;51.362;7.370;2023-02-01T00:12:11;30.43;;;10.53;;
12884;SDS011;6510;51.362;7.370;2023-02-01T00:14:36;19.63;;;9.17;;
12884;SDS011;6510;51.362;7.370;2023-02-01T00:17:07;25.37;;;8.80;;
12884;SDS011;6510;51.362;7.370;2023-02-01T00:19:33;18.63;;;7.80;;
12884;SDS011;6510;51.362;7.370;2023-02-01T00:21:59;16.93;;;7.43;;
12884;SDS011;6510;51.362;7.370;2023-02-01T00:24:25;20.10;;;6.53;;
12884;SDS011;6510;51.362;7.370;2023-02-01T00:26:51;19.47;;;6.30;;
12884;SDS011;6510;51.362;7.370;2023-02-01T00:29:18;19.60;;;6.27;;
12884;SDS011;6510;51.362;7.370;2023-02-01T00:31:45;16.00;;;5.63;;
12884;SDS011;6510;51.362;7.370;2023-02-01T00:34:11;18.03;;;6.20;;
12884;SDS011;6510;51.362;7.370;2023-02-01T00:36:38;16.50;;;5.50;;
12884;SDS011;6510;51.362;7.370;2023-02-01T00:39:05;15.63;;;5.17;;
12884;SDS011;6510;51.362;7.370;2023-02-01T00:41:30;15.80;;;5.37;;
12884;SDS011;6510;51.362;7.370;2023-02-01T00:43:56;13.00;;;5.73;;
12884;SDS011;6510;51.362;7.370;2023-02-01T00:46:24;14.90;;;4.27;;
12884;SDS011;6510;51.362;7.370;2023-02-01T00:48:50;12.20;;;4.17;;
12884;SDS011;6510;51.362;7.370;2023-02-01T00:51:17;17.83;;;4.87;;
12884;SDS011;6510;51.362;7.370;2023-02-01T00:53:45;16.03;;;3.90;;
12884;SDS011;6510;51.362;7.370;2023-02-01T00:56:11;13.97;;;4.10;;
12884;SDS011;6510;51.362;7.370;2023-02-01T00:58:37;12.43;;;4.47;;
12884;SDS011;6510;51.362;7.370;2023-02-01T01:03:36;10.07;;;4.27;;
12884;SDS011;6510;51.362;7.370;2023-02-01T01:06:08;12.57;;;3.90;;
12884;SDS011;6510;51.362;7.370;2023-02-01T01:08:35;14.37;;;4.40;;
12884;SDS011;6510;51.362;7.370;2023-02-01T01:11:08;19.50;;;4.53;;
12884;SDS011;6510;51.362;7.370;2023-02-01T01:13:39;13.00;;;3.80;;
12884;SDS011;6510;51.362;7.370;2023-02-01T01:16:06;16.50;;;4.30;;
12884;SDS011;6510;51.362;7.370;2023-02-01T01:18:33;14.03;;;4.50;;
12884;SDS011;6510;51.362;7.370;2023-02-01T01:21:00;13.23;;;4.03;;
12884;SDS011;6510;51.362;7.370;2023-02-01T01:23:26;13.83;;;4.90;;
12884;SDS011;6510;51.362;7.370;2023-02-01T01:25:52;10.77;;;4.23;;
12884;SDS011;6510;51.362;7.370;2023-02-01T01:28:18;16.47;;;5.27;;
12884;SDS011;6510;51.362;7.370;2023-02-01T01:30:43;13.17;;;4.90;;
12884;SDS011;6510;51.362;7.370;2023-02-01T01:33:09;15.83;;;5.70;;
12884;SDS011;6510;51.362;7.370;2023-02-01T01:35:35;15.67;;;5.50;;
12884;SDS011;6510;51.362;7.370;2023-02-01T01:38:01;15.53;;;5.90;;
12884;SDS011;6510;51.362;7.370;2023-02-01T01:40:28;13.87;;;6.17;;
12884;SDS011;6510;51.362;7.370;2023-02-01T01:42:55;18.90;;;6.40;;
12884;SDS011;6510;51.362;7.370;2023-02-01T01:47:51;18.67;;;6.60;;
12884;SDS011;6510;51.362;7.370;2023-02-01T01:50:21;14.20;;;5.90;;
12884;SDS011;6510;51.362;7.370;2023-02-01T01:52:52;17.57;;;6.90;;
12884;SDS011;6510;51.362;7.370;2023-02-01T01:55:20;13.97;;;6.63;;
12884;SDS011;6510;51.362;7.370;2023-02-01T01:57:49;17.83;;;5.80;;
12884;SDS011;6510;51.362;7.370;2023-02-01T02:00:28;15.23;;;6.17;;
12884;SDS011;6510;51.362;7.370;2023-02-01T02:02:58;19.40;;;7.17;;
12884;SDS011;6510;51.362;7.370;2023-02-01T02:05:44;17.97;;;7.00;;
12884;SDS011;6510;51.362;7.370;2023-02-01T02:08:11;11.83;;;5.87;;
12884;SDS011;6510;51.362;7.370;2023-02-01T02:10:37;14.50;;;6.43;;
12884;SDS011;6510;51.362;7.370;2023-02-01T02:13:21;14.27;;;6.20;;
12884;SDS011;6510;51.362;7.370;2023-02-01T02:24:28;15.20;;;4.80;;
12884;SDS011;6510;51.362;7.370;2023-02-01T02:35:28;14.33;;;4.43;;
12884;SDS011;6510;51.362;7.370;2023-02-01T02:38:05;18.33;;;4.30;;
12884;SDS011;6510;51.362;7.370;2023-02-01T02:40:51;12.97;;;3.90;;
12884;SDS011;6510;51.362;7.370;2023-02-01T02:43:25;15.83;;;4.33;;
12884;SDS011;6510;51.362;7.370;2023-02-01T02:46:24;13.23;;;3.90;;
12884;SDS011;6510;51.362;7.370;2023-02-01T02:52:05;14.10;;;3.20;;
12884;SDS011;6510;51.362;7.370;2023-02-01T02:55:01;8.87;;;3.57;;
12884;SDS011;6510;51.362;7.370;2023-02-01T02:57:37;14.60;;;3.37;;
12884;SDS011;6510;51.362;7.370;2023-02-01T03:00:27;9.30;;;3.00;;
12884;SDS011;6510;51.362;7.370;2023-02-01T03:03:14;11.90;;;3.30;;
12884;SDS011;6510;51.362;7.370;2023-02-01T03:05:58;14.83;;;3.40;;
12884;SDS011;6510;51.362;7.370;2023-02-01T03:08:25;12.37;;;3.00;;
12884;SDS011;6510;51.362;7.370;2023-02-01T03:18:57;12.10;;;3.27;;
12884;SDS011;6510;51.362;7.370;2023-02-01T03:21:29;12.93;;;3.10;;
12884;SDS011;6510;51.362;7.370;2023-02-01T03:24:00;14.23;;;3.40;;
12884;SDS011;6510;51.362;7.370;2023-02-01T03:26:30;14.43;;;3.33;;
12884;SDS011;6510;51.362;7.370;2023-02-01T03:29:01;9.40;;;2.70;;
12884;SDS011;6510;51.362;7.370;2023-02-01T03:31:33;12.07;;;3.77;;
12884;SDS011;6510;51.362;7.370;2023-02-01T03:33:59;16.20;;;3.30;;
12884;SDS011;6510;51.362;7.370;2023-02-01T03:36:26;13.40;;;2.90;;
12884;SDS011;6510;51.362;7.370;2023-02-01T03:41:51;11.07;;;2.87;;
12884;SDS011;6510;51.362;7.370;2023-02-01T03:44:21;11.87;;;3.00;;
12884;SDS011;6510;51.362;7.370;2023-02-01T03:49:45;10.80;;;2.90;;
12884;SDS011;6510;51.362;7.370;2023-02-01T03:52:16;11.43;;;3.00;;
12884;SDS011;6510;51.362;7.370;2023-02-01T03:54:50;14.43;;;3.23;;
12884;SDS011;6510;51.362;7.370;2023-02-01T03:57:18;14.87;;;4.30;;
12884;SDS011;6510;51.362;7.370;2023-02-01T04:00:02;15.53;;;2.97;;
12884;SDS011;6510;51.362;7.370;2023-02-01T04:02:32;16.07;;;2.87;;
12884;SDS011;6510;51.362;7.370;2023-02-01T04:04:58;18.00;;;3.53;;
12884;SDS011;6510;51.362;7.370;2023-02-01T04:07:23;21.17;;;3.23;;
12884;SDS011;6510;51.362;7.370;2023-02-01T04:09:49;14.87;;;3.53;;
12884;SDS011;6510;51.362;7.370;2023-02-01T04:12:14;14.57;;;3.20;;
12884;SDS011;6510;51.362;7.370;2023-02-01T04:14:40;13.97;;;3.17;;
12884;SDS011;6510;51.362;7.370;2023-02-01T04:17:06;15.10;;;3.30;;
12884;SDS011;6510;51.362;7.370;2023-02-01T04:19:31;11.47;;;3.07;;
12884;SDS011;6510;51.362;7.370;2023-02-01T04:21:57;13.63;;;3.43;;
12884;SDS011;6510;51.362;7.370;2023-02-01T04:24:22;10.53;;;2.87;;
12884;SDS011;6510;51.362;7.370;2023-02-01T04:26:48;9.73;;;2.80;;
12884;SDS011;6510;51.362;7.370;2023-02-01T04:29:13;11.67;;;3.20;;
12884;SDS011;6510;51.362;7.370;2023-02-01T04:31:39;14.00;;;3.40;;
12884;SDS011;6510;51.362;7.370;2023-02-01T04:34:05;17.53;;;3.60;;
12884;SDS011;6510;51.362;7.370;2023-02-01T04:36:30;13.07;;;3.87;;
12884;SDS011;6510;51.362;7.370;2023-02-01T04:38:56;15.87;;;3.73;;
12884;SDS011;6510;51.362;7.370;2023-02-01T04:41:21;13.87;;;3.63;;
12884;SDS011;6510;51.362;7.370;2023-02-01T04:43:48;13.10;;;3.33;;
12884;SDS011;6510;51.362;7.370;2023-02-01T04:46:14;13.33;;;2.97;;
12884;SDS011;6510;51.362;7.370;2023-02-01T04:48:40;7.77;;;2.87;;
12884;SDS011;6510;51.362;7.370;2023-02-01T04:51:06;12.03;;;3.20;;
12884;SDS011;6510;51.362;7.370;2023-02-01T04:53:32;15.77;;;3.77;;
12884;SDS011;6510;51.362;7.370;2023-02-01T04:55:58;10.47;;;3.30;;
12884;SDS011;6510;51.362;7.370;2023-02-01T04:58:23;15.83;;;3.53;;
12884;SDS011;6510;51.362;7.370;2023-02-01T05:00:49;14.17;;;3.50;;
12884;SDS011;6510;51.362;7.370;2023-02-01T05:03:16;15.00;;;3.33;;
12884;SDS011;6510;51.362;7.370;2023-02-01T05:05:42;17.03;;;4.00;;
12884;SDS011;6510;51.362;7.370;2023-02-01T05:08:07;16.10;;;3.47;;
12884;SDS011;6510;51.362;7.370;2023-02-01T05:10:33;13.43;;;3.70;;
12884;SDS011;6510;51.362;7.370;2023-02-01T05:12:58;17.67;;;4.37;;
12884;SDS011;6510;51.362;7.370;2023-02-01T05:15:43;14.20;;;3.80;;
12884;SDS011;6510;51.362;7.370;2023-02-01T05:18:08;16.30;;;3.90;;
12884;SDS011;6510;51.362;7.370;2023-02-01T05:20:34;17.97;;;3.70;;
12884;SDS011;6510;51.362;7.370;2023-02-01T05:22:59;16.60;;;3.83;;
12884;SDS011;6510;51.362;7.370;2023-02-01T05:25:25;14.57;;;3.47;;
12884;SDS011;6510;51.362;7.370;2023-02-01T05:27:50;19.97;;;4.17;;
12884;SDS011;6510;51.362;7.370;2023-02-01T05:30:17;15.83;;;4.20;;
12884;SDS011;6510;51.362;7.370;2023-02-01T05:32:43;14.63;;;4.00;;
12884;SDS011;6510;51.362;7.370;2023-02-01T05:35:09;14.20;;;4.10;;
12884;SDS011;6510;51.362;7.370;2023-02-01T05:37:35;13.47;;;3.93;;
12884;SDS011;6510;51.362;7.370;2023-02-01T05:40:00;17.83;;;4.17;;
12884;SDS011;6510;51.362;7.370;2023-02-01T05:42:26;16.87;;;4.57;;
12884;SDS011;6510;51.362;7.370;2023-02-01T05:44:51;12.73;;;4.03;;
12884;SDS011;6510;51.362;7.370;2023-02-01T05:47:17;14.30;;;3.80;;
12884;SDS011;6510;51.362;7.370;2023-02-01T05:49:43;17.37;;;3.57;;
12884;SDS011;6510;51.362;7.370;2023-02-01T05:52:08;17.67;;;3.87;;
12884;SDS011;6510;51.362;7.370;2023-02-01T05:54:34;13.57;;;3.60;;
12884;SDS011;6510;51.362;7.370;2023-02-01T05:56:59;13.93;;;3.30;;
12884;SDS011;6510;51.362;7.370;2023-02-01T05:59:25;13.27;;;4.50;;
12884;SDS011;6510;51.362;7.370;2023-02-01T06:01:51;16.20;;;3.60;;
12884;SDS011;6510;51.362;7.370;2023-02-01T06:04:16;14.00;;;3.90;;
12884;SDS011;6510;51.362;7.370;2023-02-01T06:06:42;12.13;;;3.40;;
12884;SDS011;6510;51.362;7.370;2023-02-01T06:09:08;12.47;;;3.37;;
12884;SDS011;6510;51.362;7.370;2023-02-01T06:11:33;17.57;;;3.73;;
12884;SDS011;6510;51.362;7.370;2023-02-01T06:13:59;17.47;;;4.60;;
12884;SDS011;6510;51.362;7.370;2023-02-01T06:16:25;12.97;;;4.03;;
12884;SDS011;6510;51.362;7.370;2023-02-01T06:18:51;15.67;;;4.53;;
12884;SDS011;6510;51.362;7.370;2023-02-01T06:21:16;17.60;;;3.90;;
12884;SDS011;6510;51.362;7.370;2023-02-01T06:23:49;16.57;;;4.40;;
12884;SDS011;6510;51.362;7.370;2023-02-01T06:26:15;20.37;;;4.60;;
12884;SDS011;6510;51.362;7.370;2023-02-01T06:28:43;19.73;;;4.37;;
12884;SDS011;6510;51.362;7.370;2023-02-01T06:31:08;14.23;;;4.33;;
12884;SDS011;6510;51.362;7.370;2023-02-01T06:33:34;16.73;;;4.23;;
12884;SDS011;6510;51.362;7.370;2023-02-01T06:36:01;20.77;;;5.23;;
12884;SDS011;6510;51.362;7.370;2023-02-01T06:38:29;18.03;;;4.53;;
12884;SDS011;6510;51.362;7.370;2023-02-01T06:40:56;18.83;;;4.83;;
12884;SDS011;6510;51.362;7.370;2023-02-01T06:43:23;16.03;;;4.20;;
12884;SDS011;6510;51.362;7.370;2023-02-01T06:45:50;14.07;;;4.17;;
12884;SDS011;6510;51.362;7.370;2023-02-01T06:48:16;16.10;;;3.70;;
12884;SDS011;6510;51.362;7.370;2023-02-01T06:50:42;11.23;;;4.13;;
12884;SDS011;6510;51.362;7.370;2023-02-01T06:53:07;20.87;;;4.80;;
12884;SDS011;6510;51.362;7.370;2023-02-01T06:55:33;16.77;;;4.80;;
12884;SDS011;6510;51.362;7.370;2023-02-01T06:57:59;16.40;;;4.30;;
12884;SDS011;6510;51.362;7.370;2023-02-01T07:00:28;16.83;;;4.47;;
12884;SDS011;6510;51.362;7.370;2023-02-01T07:02:54;17.90;;;3.70;;
12884;SDS011;6510;51.362;7.370;2023-02-01T07:05:20;15.93;;;5.07;;
12884;SDS011;6510;51.362;7.370;2023-02-01T07:07:46;12.13;;;3.43;;
12884;SDS011;6510;51.362;7.370;2023-02-01T07:10:12;16.03;;;4.97;;
12884;SDS011;6510;51.362;7.370;2023-02-01T07:12:37;16.50;;;3.80;;
12884;SDS011;6510;51.362;7.370;2023-02-01T07:15:04;17.90;;;3.80;;
12884;SDS011;6510;51.362;7.370;2023-02-01T07:17:30;14.10;;;3.70;;
12884;SDS011;6510;51.362;7.370;2023-02-01T07:19:56;13.87;;;3.67;;
12884;SDS011;6510;51.362;7.370;2023-02-01T07:22:23;14.97;;;3.67;;
12884;SDS011;6510;51.362;7.370;2023-02-01T07:24:49;13.57;;;4.17;;
12884;SDS011;6510;51.362;7.370;2023-02-01T07:27:14;14.27;;;3.60;;
12884;SDS011;6510;51.362;7.370;2023-02-01T07:29:40;18.60;;;4.00;;
12884;SDS011;6510;51.362;7.370;2023-02-01T07:32:06;15.83;;;3.50;;
12884;SDS011;6510;51.362;7.370;2023-02-01T07:34:31;18.13;;;3.83;;
12884;SDS011;6510;51.362;7.370;2023-02-01T07:36:57;17.67;;;3.83;;
12884;SDS011;6510;51.362;7.370;2023-02-01T07:39:23;13.50;;;3.60;;
12884;SDS011;6510;51.362;7.370;2023-02-01T07:41:49;14.23;;;3.80;;
12884;SDS011;6510;51.362;7.370;2023-02-01T07:44:14;17.90;;;4.30;;
12884;SDS011;6510;51.362;7.370;2023-02-01T07:46:47;14.10;;;3.80;;
12884;SDS011;6510;51.362;7.370;2023-02-01T07:49:13;16.77;;;4.67;;
12884;SDS011;6510;51.362;7.370;2023-02-01T07:51:39;16.07;;;4.83;;
12884;SDS011;6510;51.362;7.370;2023-02-01T07:54:04;15.57;;;4.97;;
12884;SDS011;6510;51.362;7.370;2023-02-01T07:56:30;17.10;;;4.40;;
12884;SDS011;6510;51.362;7.370;2023-02-01T07:58:55;16.63;;;4.60;;
12884;SDS011;6510;51.362;7.370;2023-02-01T08:01:22;18.90;;;4.60;;
12884;SDS011;6510;51.362;7.370;2023-02-01T08:03:51;16.40;;;5.80;;
12884;SDS011;6510;51.362;7.370;2023-02-01T08:06:21;22.80;;;5.50;;
12884;SDS011;6510;51.362;7.370;2023-02-01T08:08:49;18.40;;;4.73;;
12884;SDS011;6510;51.362;7.370;2023-02-01T08:11:15;16.27;;;5.17;;
12884;SDS011;6510;51.362;7.370;2023-02-01T08:13:41;13.93;;;4.60;;
12884;SDS011;6510;51.362;7.370;2023-02-01T08:16:08;23.20;;;5.20;;
12884;SDS011;6510;51.362;7.370;2023-02-01T08:18:35;22.37;;;5.13;;
12884;SDS011;6510;51.362;7.370;2023-02-01T08:21:04;16.77;;;5.00;;
12884;SDS011;6510;51.362;7.370;2023-02-01T08:23:35;16.03;;;4.80;;
12884;SDS011;6510;51.362;7.370;2023-02-01T08:28:33;18.53;;;5.17;;
12884;SDS011;6510;51.362;7.370;2023-02-01T08:30:58;18.23;;;5.20;;
12884;SDS011;6510;51.362;7.370;2023-02-01T08:33:24;16.90;;;4.57;;
12884;SDS011;6510;51.362;7.370;2023-02-01T08:35:50;16.80;;;5.23;;
12884;SDS011;6510;51.362;7.370;2023-02-01T08:38:15;14.57;;;4.87;;
12884;SDS011;6510;51.362;7.370;2023-02-01T08:40:41;13.07;;;4.73;;
12884;SDS011;6510;51.362;7.370;2023-02-01T08:43:07;13.93;;;5.77;;
12884;SDS011;6510;51.362;7.370;2023-02-01T08:45:32;12.87;;;5.50;;
12884;SDS011;6510;51.362;7.370;2023-02-01T08:47:58;16.63;;;5.37;;
12884;SDS011;6510;51.362;7.370;2023-02-01T08:50:24;17.63;;;5.83;;
12884;SDS011;6510;51.362;7.370;2023-02-01T08:52:50;15.70;;;6.30;;
12884;SDS011;6510;51.362;7.370;2023-02-01T08:55:16;19.27;;;6.07;;
12884;SDS011;6510;51.362;7.370;2023-02-01T08:57:42;21.80;;;5.50;;
12884;SDS011;6510;51.362;7.370;2023-02-01T09:00:09;17.63;;;6.03;;
12884;SDS011;6510;51.362;7.370;2023-02-01T09:02:37;18.60;;;6.10;;
12884;SDS011;6510;51.362;7.370;2023-02-01T09:05:03;21.73;;;6.70;;
12884;SDS011;6510;51.362;7.370;2023-02-01T09:07:30;16.57;;;5.90;;
12884;SDS011;6510;51.362;7.370;2023-02-01T09:09:55;20.10;;;6.03;;
12884;SDS011;6510;51.362;7.370;2023-02-01T09:12:25;17.87;;;5.77;;
12884;SDS011;6510;51.362;7.370;2023-02-01T09:14:50;19.40;;;4.83;;
12884;SDS011;6510;51.362;7.370;2023-02-01T09:17:16;14.50;;;5.50;;
12884;SDS011;6510;51.362;7.370;2023-02-01T09:19:41;13.50;;;5.23;;
12884;SDS011;6510;51.362;7.370;2023-02-01T09:22:07;13.43;;;5.27;;
12884;SDS011;6510;51.362;7.370;2023-02-01T09:24:35;18.30;;;5.83;;
12884;SDS011;6510;51.362;7.370;2023-02-01T09:27:01;12.63;;;5.23;;
12884;SDS011;6510;51.362;7.370;2023-02-01T09:29:29;14.63;;;5.47;;
12884;SDS011;6510;51.362;7.370;2023-02-01T09:31:55;17.47;;;5.73;;
12884;SDS011;6510;51.362;7.370;2023-02-01T09:34:20;15.17;;;5.60;;
12884;SDS011;6510;51.362;7.370;2023-02-01T09:36:46;12.67;;;5.13;;
12884;SDS011;6510;51.362;7.370;2023-02-01T09:39:12;17.37;;;5.87;;
12884;SDS011;6510;51.362;7.370;2023-02-01T09:41:48;17.90;;;6.07;;
12884;SDS011;6510;51.362;7.370;2023-02-01T09:46:57;17.07;;;5.30;;
12884;SDS011;6510;51.362;7.370;2023-02-01T09:49:29;18.00;;;6.00;;
12884;SDS011;6510;51.362;7.370;2023-02-01T09:51:57;13.83;;;5.10;;
12884;SDS011;6510;51.362;7.370;2023-02-01T09:54:28;14.80;;;5.20;;
12884;SDS011;6510;51.362;7.370;2023-02-01T09:57:07;20.30;;;5.70;;
12884;SDS011;6510;51.362;7.370;2023-02-01T09:59:43;21.20;;;5.43;;
12884;SDS011;6510;51.362;7.370;2023-02-01T10:02:12;11.00;;;4.83;;
12884;SDS011;6510;51.362;7.370;2023-02-01T10:04:42;14.50;;;4.60;;
12884;SDS011;6510;51.362;7.370;2023-02-01T10:15:28;16.20;;;5.20;;
12884;SDS011;6510;51.362;7.370;2023-02-01T10:26:23;10.93;;;3.80;;
12884;SDS011;6510;51.362;7.370;2023-02-01T10:29:01;11.87;;;4.80;;
12884;SDS011;6510;51.362;7.370;2023-02-01T10:31:29;9.83;;;3.90;;
12884;SDS011;6510;51.362;7.370;2023-02-01T10:33:59;16.10;;;4.90;;
12884;SDS011;6510;51.362;7.370;2023-02-01T10:36:41;11.50;;;4.23;;
12884;SDS011;6510;51.362;7.370;2023-02-01T10:39:27;19.07;;;4.47;;
12884;SDS011;6510;51.362;7.370;2023-02-01T10:41:54;12.50;;;3.80;;
12884;SDS011;6510;51.362;7.370;2023-02-01T10:44:24;12.37;;;4.00;;
12884;SDS011;6510;51.362;7.370;2023-02-01T10:46:53;15.70;;;4.17;;
12884;SDS011;6510;51.362;7.370;2023-02-01T10:49:22;9.70;;;3.53;;
12884;SDS011;6510;51.362;7.370;2023-02-01T10:51:55;11.50;;;3.80;;
12884;SDS011;6510;51.362;7.370;2023-02-01T10:54:43;15.13;;;4.00;;
12884;SDS011;6510;51.362;7.370;2023-02-01T10:57:10;14.00;;;4.23;;
12884;SDS011;6510;51.362;7.370;2023-02-01T10:59:46;16.50;;;4.33;;
12884;SDS011;6510;51.362;7.370;2023-02-01T11:02:24;10.10;;;3.73;;
12884;SDS011;6510;51.362;7.370;2023-02-01T11:04:58;13.37;;;4.27;;
12884;SDS011;6510;51.362;7.370;2023-02-01T11:07:25;13.43;;;4.70;;
12884;SDS011;6510;51.362;7.370;2023-02-01T11:09:52;14.97;;;4.30;;
12884;SDS011;6510;51.362;7.370;2023-02-01T11:12:31;14.73;;;3.87;;
12884;SDS011;6510;51.362;7.370;2023-02-01T11:15:03;14.33;;;3.97;;
12884;SDS011;6510;51.362;7.370;2023-02-01T11:17:45;11.63;;;4.03;;
12884;SDS011;6510;51.362;7.370;2023-02-01T11:20:55;12.23;;;4.20;;
12884;SDS011;6510;51.362;7.370;2023-02-01T11:23:05;13.03;;;3.77;;
12884;SDS011;6510;51.362;7.370;2023-02-01T11:25:37;17.50;;;4.43;;
12884;SDS011;6510;51.362;7.370;2023-02-01T11:28:04;14.00;;;4.07;;
12884;SDS011;6510;51.362;7.370;2023-02-01T11:32:57;10.13;;;3.80;;
12884;SDS011;6510;51.362;7.370;2023-02-01T11:35:25;13.97;;;4.40;;
12884;SDS011;6510;51.362;7.370;2023-02-01T11:38:09;15.03;;;4.67;;
12884;SDS011;6510;51.362;7.370;2023-02-01T11:40:55;10.10;;;3.43;;
12884;SDS011;6510;51.362;7.370;2023-02-01T11:43:50;9.80;;;3.37;;
12884;SDS011;6510;51.362;7.370;2023-02-01T11:46:18;14.97;;;3.67;;
12884;SDS011;6510;51.362;7.370;2023-02-01T11:48:50;10.70;;;3.47;;
12884;SDS011;6510;51.362;7.370;2023-02-01T11:56:51;10.73;;;3.73;;
12884;SDS011;6510;51.362;7.370;2023-02-01T11:59:36;12.23;;;3.77;;
12884;SDS011;6510;51.362;7.370;2023-02-01T12:02:38;14.90;;;3.57;;
12884;SDS011;6510;51.362;7.370;2023-02-01T12:05:41;16.13;;;4.03;;
12884;SDS011;6510;51.362;7.370;2023-02-01T12:14:31;16.13;;;4.10;;
12884;SDS011;6510;51.362;7.370;2023-02-01T12:32:33;15.80;;;4.87;;
12884;SDS011;6510;51.362;7.370;2023-02-01T12:37:51;17.07;;;5.13;;
12884;SDS011;6510;51.362;7.370;2023-02-01T12:46:04;17.30;;;5.07;;
12884;SDS011;6510;51.362;7.370;2023-02-01T12:51:35;12.30;;;5.03;;
12884;SDS011;6510;51.362;7.370;2023-02-01T12:56:37;24.17;;;7.30;;
12884;SDS011;6510;51.362;7.370;2023-02-01T12:59:18;15.27;;;4.93;;
12884;SDS011;6510;51.362;7.370;2023-02-01T13:01:52;17.93;;;5.73;;
12884;SDS011;6510;51.362;7.370;2023-02-01T13:04:49;20.93;;;4.37;;
12884;SDS011;6510;51.362;7.370;2023-02-01T13:07:37;11.90;;;3.97;;
12884;SDS011;6510;51.362;7.370;2023-02-01T13:15:40;11.03;;;4.37;;
12884;SDS011;6510;51.362;7.370;2023-02-01T13:18:17;15.03;;;4.50;;
12884;SDS011;6510;51.362;7.370;2023-02-01T13:21:04;9.77;;;3.37;;
12884;SDS011;6510;51.362;7.370;2023-02-01T13:23:46;14.63;;;4.30;;
12884;SDS011;6510;51.362;7.370;2023-02-01T13:26:13;17.20;;;4.43;;
12884;SDS011;6510;51.362;7.370;2023-02-01T13:28:44;15.87;;;4.20;;
12884;SDS011;6510;51.362;7.370;2023-02-01T13:36:28;16.03;;;4.63;;
12884;SDS011;6510;51.362;7.370;2023-02-01T13:44:52;15.83;;;4.47;;
12884;SDS011;6510;51.362;7.370;2023-02-01T13:47:26;16.73;;;5.20;;
12884;SDS011;6510;51.362;7.370;2023-02-01T13:49:53;14.00;;;5.10;;
12884;SDS011;6510;51.362;7.370;2023-02-01T13:52:41;15.00;;;5.10;;
12884;SDS011;6510;51.362;7.370;2023-02-01T13:58:29;13.30;;;5.20;;
12884;SDS011;6510;51.362;7.370;2023-02-01T14:00:36;15.17;;;4.90;;
12884;SDS011;6510;51.362;7.370;2023-02-01T14:03:11;11.33;;;4.60;;
12884;SDS011;6510;51.362;7.370;2023-02-01T14:08:12;19.03;;;4.60;;
12884;SDS011;6510;51.362;7.370;2023-02-01T14:10:53;13.77;;;6.23;;
12884;SDS011;6510;51.362;7.370;2023-02-01T14:13:30;15.27;;;4.53;;
12884;SDS011;6510;51.362;7.370;2023-02-01T14:23:44;11.33;;;4.43;;
12884;SDS011;6510;51.362;7.370;2023-02-01T14:26:16;18.53;;;4.23;;
12884;SDS011;6510;51.362;7.370;2023-02-01T14:34:02;13.70;;;4.03;;
12884;SDS011;6510;51.362;7.370;2023-02-01T14:36:43;15.37;;;3.93;;
12884;SDS011;6510;51.362;7.370;2023-02-01T14:39:26;18.67;;;3.77;;
12884;SDS011;6510;51.362;7.370;2023-02-01T14:42:02;13.13;;;4.23;;
12884;SDS011;6510;51.362;7.370;2023-02-01T14:44:38;11.07;;;3.67;;
12884;SDS011;6510;51.362;7.370;2023-02-01T14:49:49;17.23;;;3.70;;
12884;SDS011;6510;51.362;7.370;2023-02-01T14:52:18;15.40;;;4.23;;
12884;SDS011;6510;51.362;7.370;2023-02-01T14:54:48;16.63;;;4.30;;
12884;SDS011;6510;51.362;7.370;2023-02-01T14:57:18;18.80;;;5.93;;
12884;SDS011;6510;51.362;7.370;2023-02-01T14:59:47;12.13;;;3.60;;
12884;SDS011;6510;51.362;7.370;2023-02-01T15:02:23;14.60;;;3.97;;
12884;SDS011;6510;51.362;7.370;2023-02-01T15:04:55;13.10;;;3.43;;
12884;SDS011;6510;51.362;7.370;2023-02-01T15:07:22;12.77;;;3.53;;
12884;SDS011;6510;51.362;7.370;2023-02-01T15:09:50;18.67;;;3.80;;
12884;SDS011;6510;51.362;7.370;2023-02-01T15:12:18;16.87;;;3.50;;
12884;SDS011;6510;51.362;7.370;2023-02-01T15:15:14;12.60;;;3.07;;
12884;SDS011;6510;51.362;7.370;2023-02-01T15:17:42;10.77;;;3.63;;
12884;SDS011;6510;51.362;7.370;2023-02-01T15:20:29;18.70;;;3.83;;
12884;SDS011;6510;51.362;7.370;2023-02-01T15:22:58;14.40;;;3.30;;
12884;SDS011;6510;51.362;7.370;2023-02-01T15:25:26;10.70;;;3.87;;
12884;SDS011;6510;51.362;7.370;2023-02-01T15:27:54;12.33;;;3.00;;
12884;SDS011;6510;51.362;7.370;2023-02-01T15:30:25;16.23;;;4.07;;
12884;SDS011;6510;51.362;7.370;2023-02-01T15:33:03;16.03;;;5.03;;
12884;SDS011;6510;51.362;7.370;2023-02-01T15:35:36;19.80;;;4.10;;
12884;SDS011;6510;51.362;7.370;2023-02-01T15:43:36;15.03;;;3.70;;
12884;SDS011;6510;51.362;7.370;2023-02-01T15:46:02;16.27;;;3.03;;
12884;SDS011;6510;51.362;7.370;2023-02-01T15:48:42;15.57;;;3.60;;
12884;SDS011;6510;51.362;7.370;2023-02-01T15:51:11;14.83;;;3.17;;
12884;SDS011;6510;51.362;7.370;2023-02-01T15:53:39;10.57;;;3.17;;
12884;SDS011;6510;51.362;7.370;2023-02-01T15:56:11;13.20;;;3.57;;
12884;SDS011;6510;51.362;7.370;2023-02-01T15:58:37;26.47;;;5.13;;
12884;SDS011;6510;51.362;7.370;2023-02-01T16:01:10;13.33;;;3.40;;
12884;SDS011;6510;51.362;7.370;2023-02-01T16:03:39;12.47;;;3.77;;
12884;SDS011;6510;51.362;7.370;2023-02-01T16:06:08;11.23;;;4.20;;
12884;SDS011;6510;51.362;7.370;2023-02-01T16:08:55;13.57;;;3.20;;
12884;SDS011;6510;51.362;7.370;2023-02-01T16:11:28;10.50;;;3.47;;
12884;SDS011;6510;51.362;7.370;2023-02-01T16:14:04;14.63;;;4.30;;
12884;SDS011;6510;51.362;7.370;2023-02-01T16:16:30;16.57;;;4.47;;
12884;SDS011;6510;51.362;7.370;2023-02-01T16:18:55;15.97;;;3.43;;
12884;SDS011;6510;51.362;7.370;2023-02-01T16:21:21;11.73;;;3.00;;
12884;SDS011;6510;51.362;7.370;2023-02-01T16:23:48;10.87;;;3.13;;
12884;SDS011;6510;51.362;7.370;2023-02-01T16:26:15;12.23;;;3.00;;
12884;SDS011;6510;51.362;7.370;2023-02-01T16:28:41;15.50;;;3.83;;
12884;SDS011;6510;51.362;7.370;2023-02-01T16:31:09;12.23;;;3.50;;
12884;SDS011;6510;51.362;7.370;2023-02-01T16:33:53;15.67;;;3.47;;
12884;SDS011;6510;51.362;7.370;2023-02-01T16:36:19;17.07;;;4.03;;
12884;SDS011;6510;51.362;7.370;2023-02-01T16:38:45;19.97;;;9.03;;
12884;SDS011;6510;51.362;7.370;2023-02-01T16:41:13;17.50;;;5.63;;
12884;SDS011;6510;51.362;7.370;2023-02-01T16:43:39;18.00;;;6.60;;
12884;SDS011;6510;51.362;7.370;2023-02-01T16:46:05;18.50;;;5.60;;
12884;SDS011;6510;51.362;7.370;2023-02-01T16:48:39;22.47;;;8.87;;
12884;SDS011;6510;51.362;7.370;2023-02-01T16:51:10;19.93;;;5.40;;
12884;SDS011;6510;51.362;7.370;2023-02-01T16:53:44;15.67;;;5.20;;
12884;SDS011;6510;51.362;7.370;2023-02-01T16:56:14;20.97;;;8.23;;
12884;SDS011;6510;51.362;7.370;2023-02-01T16:58:42;17.83;;;4.83;;
12884;SDS011;6510;51.362;7.370;2023-02-01T17:01:09;21.13;;;7.80;;
12884;SDS011;6510;51.362;7.370;2023-02-01T17:03:36;15.13;;;5.13;;
12884;SDS011;6510;51.362;7.370;2023-02-01T17:06:02;14.93;;;5.43;;
12884;SDS011;6510;51.362;7.370;2023-02-01T17:08:33;18.23;;;6.23;;
12884;SDS011;6510;51.362;7.370;2023-02-01T17:11:00;21.37;;;7.73;;
12884;SDS011;6510;51.362;7.370;2023-02-01T17:13:27;17.67;;;5.63;;
12884;SDS011;6510;51.362;7.370;2023-02-01T17:15:54;20.53;;;5.10;;
12884;SDS011;6510;51.362;7.370;2023-02-01T17:18:27;24.97;;;5.60;;
12884;SDS011;6510;51.362;7.370;2023-02-01T17:20:57;17.50;;;6.43;;
12884;SDS011;6510;51.362;7.370;2023-02-01T17:23:24;18.47;;;6.07;;
12884;SDS011;6510;51.362;7.370;2023-02-01T17:25:50;16.87;;;5.20;;
12884;SDS011;6510;51.362;7.370;2023-02-01T17:28:16;26.57;;;7.87;;
12884;SDS011;6510;51.362;7.370;2023-02-01T17:30:41;18.87;;;6.63;;
12884;SDS011;6510;51.362;7.370;2023-02-01T17:33:16;18.37;;;4.80;;